sensor_id;sensor_type;location;lat;lon;timestamp;temperature;humidity
17887;DHT22;9069;52.044;7.472;2023-06-22T00:00:54;24.90;71.60
17887;DHT22;9069;52.044;7.472;2023-06-22T00:03:23;24.80;71.70
17887;DHT22;9069;52.044;7.472;2023-06-22T00:05:51;24.80;72.10
17887;DHT22;9069;52.044;7.472;2023-06-22T00:08:19;24.80;72.30
17887;DHT22;9069;52.044;7.472;2023-06-22T00:10:46;24.70;72.60
17887;DHT22;9069;52.044;7.472;2023-06-22T00:13:14;24.70;72.80
17887;DHT22;9069;52.044;7.472;2023-06-22T00:15:41;24.70;72.90
17887;DHT22;9069;52.044;7.472;2023-06-22T00:18:09;24.70;74.10
17887;DHT22;9069;52.044;7.472;2023-06-22T00:20:37;24.60;73.60
17887;DHT22;9069;52.044;7.472;2023-06-22T00:23:06;24.60;73.70
17887;DHT22;9069;52.044;7.472;2023-06-22T00:25:36;24.60;74.20
17887;DHT22;9069;52.044;7.472;2023-06-22T00:28:03;24.60;73.90
17887;DHT22;9069;52.044;7.472;2023-06-22T00:30:31;24.50;74.30
17887;DHT22;9069;52.044;7.472;2023-06-22T00:32:59;24.50;74.60
17887;DHT22;9069;52.044;7.472;2023-06-22T00:35:26;24.50;74.90
17887;DHT22;9069;52.044;7.472;2023-06-22T00:37:56;24.50;75.10
17887;DHT22;9069;52.044;7.472;2023-06-22T00:40:31;24.40;75.00
17887;DHT22;9069;52.044;7.472;2023-06-22T00:42:59;24.40;75.00
17887;DHT22;9069;52.044;7.472;2023-06-22T00:45:26;24.40;75.20
17887;DHT22;9069;52.044;7.472;2023-06-22T00:47:56;24.30;75.50
17887;DHT22;9069;52.044;7.472;2023-06-22T00:50:26;24.30;75.70
17887;DHT22;9069;52.044;7.472;2023-06-22T00:53:03;24.30;76.00
17887;DHT22;9069;52.044;7.472;2023-06-22T00:55:45;24.30;76.80
17887;DHT22;9069;52.044;7.472;2023-06-22T00:58:13;24.20;76.40
17887;DHT22;9069;52.044;7.472;2023-06-22T01:00:41;24.20;76.50
17887;DHT22;9069;52.044;7.472;2023-06-22T01:03:08;24.20;76.90
17887;DHT22;9069;52.044;7.472;2023-06-22T01:05:37;24.20;77.30
17887;DHT22;9069;52.044;7.472;2023-06-22T01:10:53;24.10;77.70
17887;DHT22;9069;52.044;7.472;2023-06-22T01:16:17;24.10;77.70
17887;DHT22;9069;52.044;7.472;2023-06-22T01:18:46;24.00;77.80
17887;DHT22;9069;52.044;7.472;2023-06-22T01:21:18;24.00;78.00
17887;DHT22;9069;52.044;7.472;2023-06-22T01:24:02;24.00;78.00
17887;DHT22;9069;52.044;7.472;2023-06-22T01:29:24;23.90;79.40
17887;DHT22;9069;52.044;7.472;2023-06-22T01:31:54;23.90;78.80
17887;DHT22;9069;52.044;7.472;2023-06-22T01:34:23;23.90;79.30
17887;DHT22;9069;52.044;7.472;2023-06-22T01:36:51;23.80;79.20
17887;DHT22;9069;52.044;7.472;2023-06-22T01:39:19;23.80;79.40
17887;DHT22;9069;52.044;7.472;2023-06-22T01:41:48;23.80;79.40
17887;DHT22;9069;52.044;7.472;2023-06-22T01:44:15;23.90;79.40
17887;DHT22;9069;52.044;7.472;2023-06-22T01:46:42;23.80;79.70
17887;DHT22;9069;52.044;7.472;2023-06-22T01:49:10;23.90;79.80
17887;DHT22;9069;52.044;7.472;2023-06-22T01:51:37;23.80;80.10
17887;DHT22;9069;52.044;7.472;2023-06-22T01:54:06;23.80;80.30
17887;DHT22;9069;52.044;7.472;2023-06-22T01:56:33;23.80;80.50
17887;DHT22;9069;52.044;7.472;2023-06-22T01:59:27;23.70;80.60
17887;DHT22;9069;52.044;7.472;2023-06-22T02:02:07;23.70;80.70
17887;DHT22;9069;52.044;7.472;2023-06-22T02:04:48;23.70;81.00
17887;DHT22;9069;52.044;7.472;2023-06-22T02:07:19;23.70;81.40
17887;DHT22;9069;52.044;7.472;2023-06-22T02:09:50;23.70;80.90
17887;DHT22;9069;52.044;7.472;2023-06-22T02:12:22;23.70;80.80
17887;DHT22;9069;52.044;7.472;2023-06-22T02:14:51;23.70;80.70
17887;DHT22;9069;52.044;7.472;2023-06-22T02:17:18;23.70;80.30
17887;DHT22;9069;52.044;7.472;2023-06-22T02:19:45;23.80;80.50
17887;DHT22;9069;52.044;7.472;2023-06-22T02:22:13;23.60;80.80
17887;DHT22;9069;52.044;7.472;2023-06-22T02:24:40;23.60;81.20
17887;DHT22;9069;52.044;7.472;2023-06-22T02:27:07;23.60;81.40
17887;DHT22;9069;52.044;7.472;2023-06-22T02:29:34;23.60;81.30
17887;DHT22;9069;52.044;7.472;2023-06-22T02:32:01;23.60;81.40
17887;DHT22;9069;52.044;7.472;2023-06-22T02:34:28;23.70;81.70
17887;DHT22;9069;52.044;7.472;2023-06-22T02:36:55;23.50;82.10
17887;DHT22;9069;52.044;7.472;2023-06-22T02:39:24;23.50;82.50
17887;DHT22;9069;52.044;7.472;2023-06-22T02:41:52;23.60;82.80
17887;DHT22;9069;52.044;7.472;2023-06-22T02:44:21;23.60;83.00
17887;DHT22;9069;52.044;7.472;2023-06-22T02:46:48;23.50;82.70
17887;DHT22;9069;52.044;7.472;2023-06-22T02:49:16;23.50;82.80
17887;DHT22;9069;52.044;7.472;2023-06-22T02:51:46;23.50;83.00
17887;DHT22;9069;52.044;7.472;2023-06-22T02:54:15;23.50;83.30
17887;DHT22;9069;52.044;7.472;2023-06-22T02:56:43;23.40;83.10
17887;DHT22;9069;52.044;7.472;2023-06-22T02:59:11;23.40;83.00
17887;DHT22;9069;52.044;7.472;2023-06-22T03:01:38;23.40;83.20
17887;DHT22;9069;52.044;7.472;2023-06-22T03:04:15;23.40;83.00
17887;DHT22;9069;52.044;7.472;2023-06-22T03:06:42;23.40;83.20
17887;DHT22;9069;52.044;7.472;2023-06-22T03:09:09;23.40;83.60
17887;DHT22;9069;52.044;7.472;2023-06-22T03:11:36;23.40;83.40
17887;DHT22;9069;52.044;7.472;2023-06-22T03:14:03;23.30;83.70
17887;DHT22;9069;52.044;7.472;2023-06-22T03:16:30;23.30;83.80
17887;DHT22;9069;52.044;7.472;2023-06-22T03:18:58;23.30;84.10
17887;DHT22;9069;52.044;7.472;2023-06-22T03:21:28;23.30;84.10
17887;DHT22;9069;52.044;7.472;2023-06-22T03:23:55;23.20;84.50
17887;DHT22;9069;52.044;7.472;2023-06-22T03:26:22;23.20;84.30
17887;DHT22;9069;52.044;7.472;2023-06-22T03:28:50;23.20;84.30
17887;DHT22;9069;52.044;7.472;2023-06-22T03:31:17;23.20;84.60
17887;DHT22;9069;52.044;7.472;2023-06-22T03:33:49;23.20;84.30
17887;DHT22;9069;52.044;7.472;2023-06-22T03:36:17;23.10;84.50
17887;DHT22;9069;52.044;7.472;2023-06-22T03:38:48;23.10;85.00
17887;DHT22;9069;52.044;7.472;2023-06-22T03:41:15;23.10;84.90
17887;DHT22;9069;52.044;7.472;2023-06-22T03:43:43;23.10;85.00
17887;DHT22;9069;52.044;7.472;2023-06-22T03:46:10;23.00;85.20
17887;DHT22;9069;52.044;7.472;2023-06-22T03:48:37;23.00;85.50
17887;DHT22;9069;52.044;7.472;2023-06-22T03:51:04;23.00;85.80
17887;DHT22;9069;52.044;7.472;2023-06-22T03:53:31;23.00;85.90
17887;DHT22;9069;52.044;7.472;2023-06-22T03:55:58;23.00;86.10
17887;DHT22;9069;52.044;7.472;2023-06-22T03:58:24;23.10;86.20
17887;DHT22;9069;52.044;7.472;2023-06-22T04:00:52;23.00;86.40
17887;DHT22;9069;52.044;7.472;2023-06-22T04:03:19;22.90;86.40
17887;DHT22;9069;52.044;7.472;2023-06-22T04:05:47;22.90;86.40
17887;DHT22;9069;52.044;7.472;2023-06-22T04:08:14;22.90;86.80
17887;DHT22;9069;52.044;7.472;2023-06-22T04:10:41;22.90;86.80
17887;DHT22;9069;52.044;7.472;2023-06-22T04:13:09;22.90;86.90
17887;DHT22;9069;52.044;7.472;2023-06-22T04:15:36;22.90;87.00
17887;DHT22;9069;52.044;7.472;2023-06-22T04:18:03;22.90;87.00
17887;DHT22;9069;52.044;7.472;2023-06-22T04:20:31;22.90;87.30
17887;DHT22;9069;52.044;7.472;2023-06-22T04:22:58;22.90;87.20
17887;DHT22;9069;52.044;7.472;2023-06-22T04:25:25;22.90;87.50
17887;DHT22;9069;52.044;7.472;2023-06-22T04:27:52;22.90;87.70
17887;DHT22;9069;52.044;7.472;2023-06-22T04:30:19;22.90;87.80
17887;DHT22;9069;52.044;7.472;2023-06-22T04:32:45;22.90;87.80
17887;DHT22;9069;52.044;7.472;2023-06-22T04:35:24;22.90;87.70
17887;DHT22;9069;52.044;7.472;2023-06-22T04:37:52;22.90;88.10
17887;DHT22;9069;52.044;7.472;2023-06-22T04:40:22;22.90;88.30
17887;DHT22;9069;52.044;7.472;2023-06-22T04:42:49;22.90;88.70
17887;DHT22;9069;52.044;7.472;2023-06-22T04:45:20;22.90;88.70
17887;DHT22;9069;52.044;7.472;2023-06-22T04:47:47;23.00;88.80
17887;DHT22;9069;52.044;7.472;2023-06-22T04:50:14;23.00;88.80
17887;DHT22;9069;52.044;7.472;2023-06-22T04:52:41;23.10;88.70
17887;DHT22;9069;52.044;7.472;2023-06-22T04:55:08;23.10;88.70
17887;DHT22;9069;52.044;7.472;2023-06-22T04:57:35;23.20;89.00
17887;DHT22;9069;52.044;7.472;2023-06-22T05:00:06;23.30;89.10
17887;DHT22;9069;52.044;7.472;2023-06-22T05:02:39;23.30;89.10
17887;DHT22;9069;52.044;7.472;2023-06-22T05:05:06;23.40;89.10
17887;DHT22;9069;52.044;7.472;2023-06-22T05:07:34;23.40;89.00
17887;DHT22;9069;52.044;7.472;2023-06-22T05:10:02;23.50;89.10
17887;DHT22;9069;52.044;7.472;2023-06-22T05:12:30;23.60;88.70
17887;DHT22;9069;52.044;7.472;2023-06-22T05:14:57;23.70;88.50
17887;DHT22;9069;52.044;7.472;2023-06-22T05:17:24;23.70;88.00
17887;DHT22;9069;52.044;7.472;2023-06-22T05:19:51;23.80;87.70
17887;DHT22;9069;52.044;7.472;2023-06-22T05:22:18;23.90;87.70
17887;DHT22;9069;52.044;7.472;2023-06-22T05:24:46;24.00;87.40
17887;DHT22;9069;52.044;7.472;2023-06-22T05:27:13;24.00;87.30
17887;DHT22;9069;52.044;7.472;2023-06-22T05:29:40;24.10;86.80
17887;DHT22;9069;52.044;7.472;2023-06-22T05:32:09;24.20;86.80
17887;DHT22;9069;52.044;7.472;2023-06-22T05:34:36;24.30;86.50
17887;DHT22;9069;52.044;7.472;2023-06-22T05:37:03;24.30;86.10
17887;DHT22;9069;52.044;7.472;2023-06-22T05:39:30;24.30;85.60
17887;DHT22;9069;52.044;7.472;2023-06-22T05:41:57;24.40;85.30
17887;DHT22;9069;52.044;7.472;2023-06-22T05:44:23;24.40;84.90
17887;DHT22;9069;52.044;7.472;2023-06-22T05:46:50;24.40;84.60
17887;DHT22;9069;52.044;7.472;2023-06-22T05:49:17;24.50;84.80
17887;DHT22;9069;52.044;7.472;2023-06-22T05:51:44;24.50;85.00
17887;DHT22;9069;52.044;7.472;2023-06-22T05:54:10;24.50;85.40
17887;DHT22;9069;52.044;7.472;2023-06-22T05:56:39;24.60;85.50
17887;DHT22;9069;52.044;7.472;2023-06-22T05:59:06;24.60;85.30
17887;DHT22;9069;52.044;7.472;2023-06-22T06:01:33;24.70;85.20
17887;DHT22;9069;52.044;7.472;2023-06-22T06:04:06;24.70;85.00
17887;DHT22;9069;52.044;7.472;2023-06-22T06:06:35;24.70;84.60
17887;DHT22;9069;52.044;7.472;2023-06-22T06:09:04;24.90;84.80
17887;DHT22;9069;52.044;7.472;2023-06-22T06:11:31;24.90;84.90
17887;DHT22;9069;52.044;7.472;2023-06-22T06:13:58;25.00;85.60
17887;DHT22;9069;52.044;7.472;2023-06-22T06:16:24;25.20;85.80
17887;DHT22;9069;52.044;7.472;2023-06-22T06:18:51;25.40;85.20
17887;DHT22;9069;52.044;7.472;2023-06-22T06:21:20;25.60;84.60
17887;DHT22;9069;52.044;7.472;2023-06-22T06:23:46;25.70;83.70
17887;DHT22;9069;52.044;7.472;2023-06-22T06:26:14;25.90;83.20
17887;DHT22;9069;52.044;7.472;2023-06-22T06:28:43;26.00;82.20
17887;DHT22;9069;52.044;7.472;2023-06-22T06:31:10;26.20;80.80
17887;DHT22;9069;52.044;7.472;2023-06-22T06:33:38;26.20;79.70
17887;DHT22;9069;52.044;7.472;2023-06-22T06:36:05;26.30;79.10
17887;DHT22;9069;52.044;7.472;2023-06-22T06:38:32;26.30;78.60
17887;DHT22;9069;52.044;7.472;2023-06-22T06:40:59;26.30;78.30
17887;DHT22;9069;52.044;7.472;2023-06-22T06:43:26;26.20;77.90
17887;DHT22;9069;52.044;7.472;2023-06-22T06:45:53;26.20;78.00
17887;DHT22;9069;52.044;7.472;2023-06-22T06:48:20;26.20;78.20
17887;DHT22;9069;52.044;7.472;2023-06-22T06:50:46;26.20;78.10
17887;DHT22;9069;52.044;7.472;2023-06-22T06:53:14;26.10;77.80
17887;DHT22;9069;52.044;7.472;2023-06-22T06:55:40;26.10;78.00
17887;DHT22;9069;52.044;7.472;2023-06-22T06:58:07;26.10;78.30
17887;DHT22;9069;52.044;7.472;2023-06-22T07:00:36;26.10;78.50
17887;DHT22;9069;52.044;7.472;2023-06-22T07:03:04;26.10;78.70
17887;DHT22;9069;52.044;7.472;2023-06-22T07:05:31;26.00;79.00
17887;DHT22;9069;52.044;7.472;2023-06-22T07:07:58;26.10;79.20
17887;DHT22;9069;52.044;7.472;2023-06-22T07:10:25;26.10;78.90
17887;DHT22;9069;52.044;7.472;2023-06-22T07:12:52;26.10;78.80
17887;DHT22;9069;52.044;7.472;2023-06-22T07:15:19;26.10;78.60
17887;DHT22;9069;52.044;7.472;2023-06-22T07:17:46;26.10;78.40
17887;DHT22;9069;52.044;7.472;2023-06-22T07:20:13;26.10;78.60
17887;DHT22;9069;52.044;7.472;2023-06-22T07:22:41;26.10;78.80
17887;DHT22;9069;52.044;7.472;2023-06-22T07:25:09;26.10;79.10
17887;DHT22;9069;52.044;7.472;2023-06-22T07:27:37;26.10;79.20
17887;DHT22;9069;52.044;7.472;2023-06-22T07:30:04;26.20;79.60
17887;DHT22;9069;52.044;7.472;2023-06-22T07:32:32;26.10;79.40
17887;DHT22;9069;52.044;7.472;2023-06-22T07:34:59;26.10;79.10
17887;DHT22;9069;52.044;7.472;2023-06-22T07:37:27;26.20;79.00
17887;DHT22;9069;52.044;7.472;2023-06-22T07:39:55;26.10;78.80
17887;DHT22;9069;52.044;7.472;2023-06-22T07:42:26;26.10;78.80
17887;DHT22;9069;52.044;7.472;2023-06-22T07:44:53;26.10;78.80
17887;DHT22;9069;52.044;7.472;2023-06-22T07:47:21;26.10;78.80
17887;DHT22;9069;52.044;7.472;2023-06-22T07:49:52;26.00;78.80
17887;DHT22;9069;52.044;7.472;2023-06-22T07:52:21;26.00;78.90
17887;DHT22;9069;52.044;7.472;2023-06-22T07:54:48;26.00;79.00
17887;DHT22;9069;52.044;7.472;2023-06-22T07:57:14;26.00;79.20
17887;DHT22;9069;52.044;7.472;2023-06-22T07:59:41;26.00;79.30
17887;DHT22;9069;52.044;7.472;2023-06-22T08:02:09;26.10;79.20
17887;DHT22;9069;52.044;7.472;2023-06-22T08:04:36;26.10;79.30
17887;DHT22;9069;52.044;7.472;2023-06-22T08:07:03;26.10;79.50
17887;DHT22;9069;52.044;7.472;2023-06-22T08:09:32;26.10;79.80
17887;DHT22;9069;52.044;7.472;2023-06-22T08:11:59;26.10;79.90
17887;DHT22;9069;52.044;7.472;2023-06-22T08:14:27;26.10;79.80
17887;DHT22;9069;52.044;7.472;2023-06-22T08:16:54;26.20;80.00
17887;DHT22;9069;52.044;7.472;2023-06-22T08:19:21;26.20;80.20
17887;DHT22;9069;52.044;7.472;2023-06-22T08:21:48;26.20;80.10
17887;DHT22;9069;52.044;7.472;2023-06-22T08:24:14;26.20;79.90
17887;DHT22;9069;52.044;7.472;2023-06-22T08:26:41;26.20;79.90
17887;DHT22;9069;52.044;7.472;2023-06-22T08:29:08;26.30;79.80
17887;DHT22;9069;52.044;7.472;2023-06-22T08:31:35;26.30;80.10
17887;DHT22;9069;52.044;7.472;2023-06-22T08:34:02;26.30;80.00
17887;DHT22;9069;52.044;7.472;2023-06-22T08:36:29;26.30;80.00
17887;DHT22;9069;52.044;7.472;2023-06-22T08:38:59;26.40;80.00
17887;DHT22;9069;52.044;7.472;2023-06-22T08:41:28;26.40;79.60
17887;DHT22;9069;52.044;7.472;2023-06-22T08:43:55;26.40;79.50
17887;DHT22;9069;52.044;7.472;2023-06-22T08:46:22;26.40;79.80
17887;DHT22;9069;52.044;7.472;2023-06-22T08:48:51;26.40;80.00
17887;DHT22;9069;52.044;7.472;2023-06-22T08:51:17;26.50;80.00
17887;DHT22;9069;52.044;7.472;2023-06-22T08:53:44;26.60;80.20
17887;DHT22;9069;52.044;7.472;2023-06-22T08:56:11;26.60;80.40
17887;DHT22;9069;52.044;7.472;2023-06-22T08:58:38;26.70;80.00
17887;DHT22;9069;52.044;7.472;2023-06-22T09:01:05;26.90;80.00
17887;DHT22;9069;52.044;7.472;2023-06-22T09:03:32;27.00;80.20
17887;DHT22;9069;52.044;7.472;2023-06-22T09:05:59;27.10;80.50
17887;DHT22;9069;52.044;7.472;2023-06-22T09:08:26;27.30;81.10
17887;DHT22;9069;52.044;7.472;2023-06-22T09:10:53;27.50;80.30
17887;DHT22;9069;52.044;7.472;2023-06-22T09:13:20;27.80;79.90
17887;DHT22;9069;52.044;7.472;2023-06-22T09:15:47;28.00;78.90
17887;DHT22;9069;52.044;7.472;2023-06-22T09:18:14;28.10;77.40
17887;DHT22;9069;52.044;7.472;2023-06-22T09:20:41;28.30;76.20
17887;DHT22;9069;52.044;7.472;2023-06-22T09:23:08;28.40;75.40
17887;DHT22;9069;52.044;7.472;2023-06-22T09:25:34;28.50;74.90
17887;DHT22;9069;52.044;7.472;2023-06-22T09:28:01;28.60;74.50
17887;DHT22;9069;52.044;7.472;2023-06-22T09:30:28;28.60;74.20
17887;DHT22;9069;52.044;7.472;2023-06-22T09:32:55;28.60;73.90
17887;DHT22;9069;52.044;7.472;2023-06-22T09:35:22;28.70;73.50
17887;DHT22;9069;52.044;7.472;2023-06-22T09:37:49;28.70;73.10
17887;DHT22;9069;52.044;7.472;2023-06-22T09:40:16;28.80;72.90
17887;DHT22;9069;52.044;7.472;2023-06-22T09:42:43;28.80;72.80
17887;DHT22;9069;52.044;7.472;2023-06-22T09:45:10;28.80;72.50
17887;DHT22;9069;52.044;7.472;2023-06-22T09:47:37;28.80;72.40
17887;DHT22;9069;52.044;7.472;2023-06-22T09:50:05;28.80;72.70
17887;DHT22;9069;52.044;7.472;2023-06-22T09:52:32;28.80;72.70
17887;DHT22;9069;52.044;7.472;2023-06-22T09:55:14;28.90;72.80
17887;DHT22;9069;52.044;7.472;2023-06-22T09:57:42;28.90;72.20
17887;DHT22;9069;52.044;7.472;2023-06-22T10:00:10;29.00;72.30
17887;DHT22;9069;52.044;7.472;2023-06-22T10:02:43;29.00;71.90
17887;DHT22;9069;52.044;7.472;2023-06-22T10:05:10;29.10;71.80
17887;DHT22;9069;52.044;7.472;2023-06-22T10:07:37;29.10;71.40
17887;DHT22;9069;52.044;7.472;2023-06-22T10:10:13;29.10;71.20
17887;DHT22;9069;52.044;7.472;2023-06-22T10:12:42;29.10;70.80
17887;DHT22;9069;52.044;7.472;2023-06-22T10:15:10;29.10;71.00
17887;DHT22;9069;52.044;7.472;2023-06-22T10:17:37;29.10;71.10
17887;DHT22;9069;52.044;7.472;2023-06-22T10:20:08;29.10;71.10
17887;DHT22;9069;52.044;7.472;2023-06-22T10:22:43;29.10;71.00
17887;DHT22;9069;52.044;7.472;2023-06-22T10:25:12;29.10;71.10
17887;DHT22;9069;52.044;7.472;2023-06-22T10:27:39;29.10;71.20
17887;DHT22;9069;52.044;7.472;2023-06-22T10:30:08;29.10;71.10
17887;DHT22;9069;52.044;7.472;2023-06-22T10:32:34;29.10;70.80
17887;DHT22;9069;52.044;7.472;2023-06-22T10:35:01;29.10;70.90
17887;DHT22;9069;52.044;7.472;2023-06-22T10:37:28;29.10;71.20
17887;DHT22;9069;52.044;7.472;2023-06-22T10:39:55;29.00;71.10
17887;DHT22;9069;52.044;7.472;2023-06-22T10:42:22;29.10;71.20
17887;DHT22;9069;52.044;7.472;2023-06-22T10:44:48;29.00;71.00
17887;DHT22;9069;52.044;7.472;2023-06-22T10:47:15;29.10;71.10
17887;DHT22;9069;52.044;7.472;2023-06-22T10:49:42;29.00;70.90
17887;DHT22;9069;52.044;7.472;2023-06-22T10:52:09;29.00;70.90
17887;DHT22;9069;52.044;7.472;2023-06-22T10:54:37;29.00;70.80
17887;DHT22;9069;52.044;7.472;2023-06-22T10:57:04;29.00;70.90
17887;DHT22;9069;52.044;7.472;2023-06-22T10:59:31;28.90;71.00
17887;DHT22;9069;52.044;7.472;2023-06-22T11:01:58;28.90;70.90
17887;DHT22;9069;52.044;7.472;2023-06-22T11:04:25;28.90;71.10
17887;DHT22;9069;52.044;7.472;2023-06-22T11:06:52;28.80;71.00
17887;DHT22;9069;52.044;7.472;2023-06-22T11:09:19;28.80;71.00
17887;DHT22;9069;52.044;7.472;2023-06-22T11:11:55;28.80;71.30
17887;DHT22;9069;52.044;7.472;2023-06-22T11:14:22;28.70;71.60
17887;DHT22;9069;52.044;7.472;2023-06-22T11:16:49;28.70;71.60
17887;DHT22;9069;52.044;7.472;2023-06-22T11:19:16;28.70;71.60
17887;DHT22;9069;52.044;7.472;2023-06-22T11:21:43;28.70;72.20
17887;DHT22;9069;52.044;7.472;2023-06-22T11:24:09;28.70;71.50
17887;DHT22;9069;52.044;7.472;2023-06-22T11:26:36;28.60;71.70
17887;DHT22;9069;52.044;7.472;2023-06-22T11:29:03;28.60;71.60
17887;DHT22;9069;52.044;7.472;2023-06-22T11:31:34;28.60;71.70
17887;DHT22;9069;52.044;7.472;2023-06-22T11:34:01;28.60;71.90
17887;DHT22;9069;52.044;7.472;2023-06-22T11:36:29;28.60;72.20
17887;DHT22;9069;52.044;7.472;2023-06-22T11:38:59;28.70;72.50
17887;DHT22;9069;52.044;7.472;2023-06-22T11:41:26;28.70;72.40
17887;DHT22;9069;52.044;7.472;2023-06-22T11:43:52;28.70;72.00
17887;DHT22;9069;52.044;7.472;2023-06-22T11:46:19;28.80;72.10
17887;DHT22;9069;52.044;7.472;2023-06-22T11:48:46;28.90;72.10
17887;DHT22;9069;52.044;7.472;2023-06-22T11:51:13;28.90;72.00
17887;DHT22;9069;52.044;7.472;2023-06-22T11:53:39;29.00;72.20
17887;DHT22;9069;52.044;7.472;2023-06-22T11:56:06;29.00;71.60
17887;DHT22;9069;52.044;7.472;2023-06-22T11:58:35;29.10;71.60
17887;DHT22;9069;52.044;7.472;2023-06-22T12:01:02;29.10;71.40
17887;DHT22;9069;52.044;7.472;2023-06-22T12:03:28;29.10;71.30
17887;DHT22;9069;52.044;7.472;2023-06-22T12:05:57;29.20;70.90
17887;DHT22;9069;52.044;7.472;2023-06-22T12:08:24;29.10;70.40
17887;DHT22;9069;52.044;7.472;2023-06-22T12:10:51;29.20;70.20
17887;DHT22;9069;52.044;7.472;2023-06-22T12:13:18;29.10;70.10
17887;DHT22;9069;52.044;7.472;2023-06-22T12:15:45;29.10;70.10
17887;DHT22;9069;52.044;7.472;2023-06-22T12:18:12;29.10;70.00
17887;DHT22;9069;52.044;7.472;2023-06-22T12:20:41;29.00;70.00
17887;DHT22;9069;52.044;7.472;2023-06-22T12:23:08;29.00;70.40
17887;DHT22;9069;52.044;7.472;2023-06-22T12:25:34;29.00;70.80
17887;DHT22;9069;52.044;7.472;2023-06-22T12:28:01;29.00;70.80
17887;DHT22;9069;52.044;7.472;2023-06-22T12:30:28;29.00;71.10
17887;DHT22;9069;52.044;7.472;2023-06-22T12:32:55;28.90;71.00
17887;DHT22;9069;52.044;7.472;2023-06-22T12:35:22;28.80;70.90
17887;DHT22;9069;52.044;7.472;2023-06-22T12:37:49;28.70;70.90
17887;DHT22;9069;52.044;7.472;2023-06-22T12:40:16;28.70;71.10
17887;DHT22;9069;52.044;7.472;2023-06-22T12:42:44;28.60;71.30
17887;DHT22;9069;52.044;7.472;2023-06-22T12:45:11;28.50;71.60
17887;DHT22;9069;52.044;7.472;2023-06-22T12:47:38;28.40;71.80
17887;DHT22;9069;52.044;7.472;2023-06-22T12:50:05;28.30;72.30
17887;DHT22;9069;52.044;7.472;2023-06-22T12:52:32;28.30;72.80
17887;DHT22;9069;52.044;7.472;2023-06-22T12:54:59;28.20;73.10
17887;DHT22;9069;52.044;7.472;2023-06-22T12:57:26;28.20;73.40
17887;DHT22;9069;52.044;7.472;2023-06-22T12:59:52;28.10;73.70
17887;DHT22;9069;52.044;7.472;2023-06-22T13:02:19;28.10;74.00
17887;DHT22;9069;52.044;7.472;2023-06-22T13:04:46;28.00;74.30
17887;DHT22;9069;52.044;7.472;2023-06-22T13:07:13;28.00;74.80
17887;DHT22;9069;52.044;7.472;2023-06-22T13:09:49;27.90;75.50
17887;DHT22;9069;52.044;7.472;2023-06-22T13:12:20;27.80;76.10
17887;DHT22;9069;52.044;7.472;2023-06-22T13:14:47;27.70;77.30
17887;DHT22;9069;52.044;7.472;2023-06-22T13:17:14;27.70;78.20
17887;DHT22;9069;52.044;7.472;2023-06-22T13:19:42;27.60;79.10
17887;DHT22;9069;52.044;7.472;2023-06-22T13:22:32;27.50;80.10
17887;DHT22;9069;52.044;7.472;2023-06-22T13:24:59;27.30;83.00
17887;DHT22;9069;52.044;7.472;2023-06-22T13:27:26;27.20;82.50
17887;DHT22;9069;52.044;7.472;2023-06-22T13:29:53;27.10;83.90
17887;DHT22;9069;52.044;7.472;2023-06-22T13:32:20;27.00;85.10
17887;DHT22;9069;52.044;7.472;2023-06-22T13:34:47;26.90;86.60
17887;DHT22;9069;52.044;7.472;2023-06-22T13:37:14;26.80;87.70
17887;DHT22;9069;52.044;7.472;2023-06-22T13:39:41;26.60;89.30
17887;DHT22;9069;52.044;7.472;2023-06-22T13:42:08;26.50;90.20
17887;DHT22;9069;52.044;7.472;2023-06-22T13:44:34;26.40;90.80
17887;DHT22;9069;52.044;7.472;2023-06-22T13:47:01;26.30;91.30
17887;DHT22;9069;52.044;7.472;2023-06-22T13:49:28;26.10;92.00
17887;DHT22;9069;52.044;7.472;2023-06-22T13:51:55;25.90;92.50
17887;DHT22;9069;52.044;7.472;2023-06-22T13:54:21;25.90;92.90
17887;DHT22;9069;52.044;7.472;2023-06-22T13:56:51;25.80;93.40
17887;DHT22;9069;52.044;7.472;2023-06-22T13:59:18;25.70;93.90
17887;DHT22;9069;52.044;7.472;2023-06-22T14:01:46;25.70;94.50
17887;DHT22;9069;52.044;7.472;2023-06-22T14:04:13;25.60;94.60
17887;DHT22;9069;52.044;7.472;2023-06-22T14:06:40;25.60;94.90
17887;DHT22;9069;52.044;7.472;2023-06-22T14:09:06;25.60;95.10
17887;DHT22;9069;52.044;7.472;2023-06-22T14:11:33;25.60;95.40
17887;DHT22;9069;52.044;7.472;2023-06-22T14:14:00;25.60;95.60
17887;DHT22;9069;52.044;7.472;2023-06-22T14:16:27;25.70;95.80
17887;DHT22;9069;52.044;7.472;2023-06-22T14:18:53;25.60;95.90
17887;DHT22;9069;52.044;7.472;2023-06-22T14:21:24;25.70;96.10
17887;DHT22;9069;52.044;7.472;2023-06-22T14:23:51;25.70;96.20
17887;DHT22;9069;52.044;7.472;2023-06-22T14:26:18;25.70;96.40
17887;DHT22;9069;52.044;7.472;2023-06-22T14:28:45;25.80;96.60
17887;DHT22;9069;52.044;7.472;2023-06-22T14:31:18;25.90;96.80
17887;DHT22;9069;52.044;7.472;2023-06-22T14:33:49;25.90;96.80
17887;DHT22;9069;52.044;7.472;2023-06-22T14:36:17;25.90;96.70
17887;DHT22;9069;52.044;7.472;2023-06-22T14:38:45;26.00;96.80
17887;DHT22;9069;52.044;7.472;2023-06-22T14:41:13;26.00;96.90
17887;DHT22;9069;52.044;7.472;2023-06-22T14:43:49;26.10;96.80
17887;DHT22;9069;52.044;7.472;2023-06-22T14:46:18;26.10;96.60
17887;DHT22;9069;52.044;7.472;2023-06-22T14:48:45;26.20;96.80
17887;DHT22;9069;52.044;7.472;2023-06-22T14:51:12;26.20;97.00
17887;DHT22;9069;52.044;7.472;2023-06-22T14:53:44;26.20;97.10
17887;DHT22;9069;52.044;7.472;2023-06-22T14:56:11;26.30;97.10
17887;DHT22;9069;52.044;7.472;2023-06-22T14:58:40;26.40;96.90
17887;DHT22;9069;52.044;7.472;2023-06-22T15:01:07;26.40;96.70
17887;DHT22;9069;52.044;7.472;2023-06-22T15:03:35;26.40;96.80
17887;DHT22;9069;52.044;7.472;2023-06-22T15:06:03;26.40;96.70
17887;DHT22;9069;52.044;7.472;2023-06-22T15:08:30;26.40;96.50
17887;DHT22;9069;52.044;7.472;2023-06-22T15:11:00;26.50;96.50
17887;DHT22;9069;52.044;7.472;2023-06-22T15:13:29;26.50;96.40
17887;DHT22;9069;52.044;7.472;2023-06-22T15:15:59;26.50;96.30
17887;DHT22;9069;52.044;7.472;2023-06-22T15:18:26;26.50;96.20
17887;DHT22;9069;52.044;7.472;2023-06-22T15:20:53;26.50;96.30
17887;DHT22;9069;52.044;7.472;2023-06-22T15:23:20;26.50;95.90
17887;DHT22;9069;52.044;7.472;2023-06-22T15:25:47;26.40;95.90
17887;DHT22;9069;52.044;7.472;2023-06-22T15:28:14;26.40;96.10
17887;DHT22;9069;52.044;7.472;2023-06-22T15:30:40;26.40;96.10
17887;DHT22;9069;52.044;7.472;2023-06-22T15:33:07;26.30;96.10
17887;DHT22;9069;52.044;7.472;2023-06-22T15:35:34;26.20;96.10
17887;DHT22;9069;52.044;7.472;2023-06-22T15:38:01;26.20;96.10
17887;DHT22;9069;52.044;7.472;2023-06-22T15:40:28;26.10;96.10
17887;DHT22;9069;52.044;7.472;2023-06-22T15:42:55;26.00;96.20
17887;DHT22;9069;52.044;7.472;2023-06-22T15:45:22;26.00;96.40
17887;DHT22;9069;52.044;7.472;2023-06-22T15:47:49;25.90;96.40
17887;DHT22;9069;52.044;7.472;2023-06-22T15:50:16;25.80;96.30
17887;DHT22;9069;52.044;7.472;2023-06-22T15:52:43;25.80;96.40
17887;DHT22;9069;52.044;7.472;2023-06-22T15:55:14;25.70;96.40
17887;DHT22;9069;52.044;7.472;2023-06-22T15:57:41;25.60;96.50